Tiempo atmosférico en la estación meteorológica de Elgoibar, Gipuzkoa (120 m.)



Fecha
DESCASC
Temp. máxima en grados centígrados (hora)
DESCASC
Temp. mínima en grados centígrados (hora)
DESCASC
Temp. media en grados centígrados
DESCASC
Racha de viento máxima en m/sg (hora)
DESCASC
Velocidad máxima media en intervalos de 10 minutos(hora)
DESCASC
Precipitaciones diarias en mm
DESCASC
Precipitaciones de 00:00 a 06:00 en mm
DESCASC
Precipitaciones de 06:00 a 12:00 en mm
DESCASC
Precipitaciones de 12:00 a 18:00 en mm
DESCASC
Precipitaciones de 18:00 a 24:00 en mm
DESCASC
22-01-2020 9.3 (15:00) 4.4 (00:20) 6.9 6.67 (04:20) 1.67 (05:20) 0 0 0 0 0
21-01-2020 4.7 (16:40) 0 (04:30) 2.3 7.22 (15:00) 2.78 (12:40) 0.2 0 0.2 0 0
20-01-2020 5.4 (00:10) 2.3 (08:40) 3.9 11.67 (01:30) 5.83 (05:20) 0 0 0 0 0
19-01-2020 7.9 (04:20) 5.2 (00:00) 6.5 13.33 (17:00) 6.39 (23:20) 10.3 10 0.3 0 0
18-01-2020 14.4 (15:30) 4 (00:00) 9.2 16.11 (16:10) 6.11 (16:10) 8 0 0 0 8
17-01-2020 15.1 (00:10) 4.8 (00:00) 10 20.28 (01:50) 8.33 (00:40) 5.4 0 5.3 0.1 0
16-01-2020 17.2 (14:00) 13 (00:00) 15.1 17.22 (02:10) 6.11 (23:59) 0 0 0 0 0
15-01-2020 15.4 (16:20) 7.3 (00:00) 11.3 19.17 (03:20) 6.11 (03:20) 0 0 0 0 0
14-01-2020 14.3 (15:10) 9.8 (00:00) 12.1 20 (14:00) 9.17 (07:20) 0 0 0 0 0
13-01-2020 13.3 (15:10) 0.8 (00:00) 7.1 17.78 (18:40) 9.44 (20:50) 0 0 0 0 0
12-01-2020 10 (15:40) -0.2 (00:00) 4.9 5.28 (00:30) 2.22 (00:30) 0.1 0 0.1 0 0
11-01-2020 10.6 (14:40) 2.6 (00:00) 6.6 4.17 (23:50) 1.94 (23:50) 0 0 0 0 0
10-01-2020 10.9 (13:00) 5.4 (00:00) 8.1 8.89 (02:10) 3.33 (13:50) 5.5 0.6 0.9 2.9 1.1
09-01-2020 16.2 (16:30) 6.6 (00:00) 11.4 18.33 (17:10) 7.78 (17:10) 0 0 0 0 0
08-01-2020 13.4 (14:50) 4.3 (00:00) 8.8 6.11 (23:59) 2.22 (23:40) 0 0 0 0 0
07-01-2020 12.7 (15:00) 2.1 (00:00) 7.4 4.17 (05:40) 1.94 (05:40) 0 0 0 0 0
06-01-2020 12 (14:40) 0.9 (00:00) 6.4 5.56 (15:40) 2.5 (09:20) 0 0 0 0 0
05-01-2020 10.3 (14:30) 4.4 (00:00) 7.4 5.28 (17:00) 2.5 (15:40) 0.1 0.1 0 0 0
04-01-2020 9.5 (13:20) 4.9 (00:00) 7.2 3.33 (12:10) 1.39 (15:30) 4.2 0.7 2.2 1.2 0.1
03-01-2020 6.9 (18:30) 1 (00:00) 4 3.89 (10:40) 1.67 (11:20) 0.4 0 0 0 0.4
02-01-2020 14.7 (14:40) 0 (00:00) 7.3 9.72 (13:00) 4.44 (13:00) 0 0 0 0 0
01-01-2020 11.6 (14:50) 2.9 (00:00) 7.3 5.28 (22:10) 2.22 (22:10) 0 0 0 0 0
31-12-2019 8.6 (15:20) 0 (00:00) 4.3 5.28 (03:30) 2.5 (05:30) 0 0 0 0 0
30-12-2019 12.4 (14:50) 0.1 (00:00) 6.2 6.67 (14:10) 3.33 (14:10) 0 0 0 0 0
29-12-2019 12.4 (15:40) 0.4 (00:00) 6.4 4.17 (07:20) 1.67 (07:20) 0 0 0 0 0
28-12-2019 11.4 (15:10) 0.1 (00:00) 5.7 3.89 (03:10) 1.94 (03:00) 0 0 0 0 0
27-12-2019 10.6 (15:00) 1 (00:00) 5.8 3.89 (22:30) 1.67 (02:00) 0 0 0 0 0
26-12-2019 17.9 (00:20) 4.2 (00:00) 11 11.94 (03:40) 5.28 (03:40) 0 0 0 0 0
25-12-2019 20.8 (16:50) 5.3 (00:00) 13 12.5 (17:20) 5 (17:20) 0 0 0 0 0

Gráficas

Temp. máximas Temp. mínimas Temp. medias Precipitaciones Rachas de viento máximas Velocidades máximas media en intervalos de 10 minutos

Datos horarios

Fecha y hora oficial Temperatura (ºC) Velocidad del viento (km/h) Dirección del viento Racha (km/h) Dirección de racha Precipitación (mm) Presión (hPa) Tendencia (hPa) Humedad (%)
2020-01-23 23:00:00 9.4 7 Sudoeste 26 Oeste 0 1005.6 0.9 69
2020-01-23 22:00:00 9.5 3 Sudoeste 26 Sudoeste 0 1005.3 0.9 70
2020-01-23 21:00:00 9.2 5 Sudoeste 22 Sur 0 1005 0.9 70
2020-01-23 20:00:00 9.1 0 Calma 16 Sudoeste 0 1004.7 1 71
2020-01-23 19:00:00 9 0 Calma 12 Nordeste 0 1004.4 1.2 72
2020-01-23 18:00:00 9.4 0 Calma 11 Sudeste 0 1004.1 0.5 76
2020-01-23 17:00:00 9.9 0 Calma 11 Sudoeste 0 1003.7 -0.7 78
2020-01-23 16:00:00 9.9 5 Sudoeste 15 Sudoeste 0 1003.2 -2 78
2020-01-23 15:00:00 9.3 7 Sudoeste 15 Sudoeste 0 1003.6 -2.3 83
2020-01-23 14:00:00 8.3 0 Calma -- -- 0 1004.4 -1.2 92
2020-01-23 13:00:00 7.5 0 Calma -- -- 0 1005.2 -0.2 95
2020-01-23 12:00:00 6.8 0 Calma -- -- 0 1005.9 0.4 96
2020-01-23 11:00:00 6 0 Calma 9 Sudoeste 0 1005.6 0.3 96
2020-01-23 10:00:00 5.2 0 Calma -- -- 0 1005.4 0.2 96
2020-01-23 09:00:00 4.9 2 Sudoeste 12 Sudoeste 0 1005.5 0 96
2020-01-23 08:00:00 4.6 0 Calma 5 Sur 0 1005.3 -0.2 96
2020-01-23 07:00:00 4.3 0 Calma 8 Sudoeste 0 1005.2 -0.6 96
2020-01-23 06:00:00 4 0 Calma 8 Sudoeste 0 1005.5 -0.1 95
2020-01-23 05:00:00 3.8 0 Calma 8 Sur 0 1005.5 -0.3 94
2020-01-23 04:00:00 4.2 0 Calma 10 Sudoeste 0 1005.8 -0.4 94
2020-01-23 03:00:00 4.7 0 Calma 11 Sudoeste 0 1005.6 -1 93
2020-01-23 02:00:00 5.6 6 Sudoeste 11 Sudoeste 0 1005.8 -0.7 93
2020-01-23 01:00:00 5.9 2 Oeste 13 Sudoeste 0 1006.2 -0.3 92
2020-01-23 00:00:00 5.9 0 Calma 7 Sudoeste 0 1006.6 0 92
2020-01-22 23:00:00 6.1 0 Calma 4 Nordeste 0 1006.5 0.1 90
2020-01-22 22:00:00 6.4 0 Calma 5 Nordeste 0 1006.5 -0.6 89
2020-01-22 21:00:00 6.6 0 Calma 9 Oeste 0 1006.6 -0.4 87
2020-01-22 20:00:00 6.8 0 Calma 5 Oeste 0 1006.4 -0.8 85
2020-01-22 19:00:00 8 3 Sudoeste 6 Norte 0 1007.1 -0.4 83
2020-01-22 18:00:00 8.5 2 Noroeste 8 Nordeste 0 1007 -0.7 80
2020-01-22 17:00:00 8.7 5 Noroeste 12 Oeste 0 1007.2 -1.2 78
2020-01-22 16:00:00 9.1 3 Norte 9 Norte 0 1007.5 -1.9 76
2020-01-22 15:00:00 9.3 0 Calma 9 Norte 0 1007.7 -2.3 80
2020-01-22 14:00:00 7.2 0 Calma 4 Norte 0 1008.4 -1.9 87
2020-01-22 13:00:00 6.9 0 Calma 4 Sudeste 0 1009.4 -0.7 90
2020-01-22 12:00:00 6.3 0 Calma 5 Nordeste 0 1010 0.2 92
2020-01-22 11:00:00 5.6 0 Calma -- -- 0 1010.3 0.5 92
2020-01-22 10:00:00 5 0 Calma 6 Este 0 1010.1 0.3 92
2020-01-22 09:00:00 5 0 Calma 6 Oeste 0 1009.8 -0.1 91
2020-01-22 08:00:00 5.1 0 Calma 10 Sudoeste 0 1009.8 -0.3 91
2020-01-22 07:00:00 5.3 5 Sudoeste 11 Sudoeste 0 1009.8 -1.4 91
2020-01-22 06:00:00 5 0 Calma 11 Sudoeste 0 1009.9 -1.3 91
2020-01-22 05:00:00 5 2 Sudoeste 24 Sudoeste 0 1010.1 -1.3 91
2020-01-22 04:00:00 4.8 0 Calma 8 Sudoeste 0 1011.2 -1 90
2020-01-22 03:00:00 4.6 0 Calma -- -- 0 1011.2 -1.6 89
2020-01-22 02:00:00 4.6 0 Calma -- -- 0 1011.4 -1.4 88
2020-01-22 01:00:00 4.6 0 Calma -- -- 0 1012.2 -1 87
2020-01-22 00:00:00 4.5 0 Calma -- -- 0 1012.8 -0.7 85
2020-01-21 23:00:00 4.4 0 Calma 3 Oeste 0 1012.8 -0.8 85
2020-01-21 22:00:00 4.4 0 Calma 5 Sudeste 0 1013.2 -0.6 84
2020-01-21 21:00:00 4.4 0 Calma 3 Sudoeste 0 1013.5 -0.4 83
2020-01-21 20:00:00 4.4 0 Calma 5 Este 0 1013.6 -0.6 82
2020-01-21 19:00:00 4.4 0 Calma 4 Nordeste 0 1013.8 -0.6 81
2020-01-21 18:00:00 4.6 0 Calma 8 Norte 0 1013.9 -0.8 79
2020-01-21 17:00:00 4.6 4 Norte 11 Noroeste 0 1014.2 -0.9 79
2020-01-21 16:00:00 4.5 4 Nordeste 15 Norte 0 1014.4 -1.7 78
2020-01-21 15:00:00 4.3 10 Nordeste 26 Norte 0 1014.7 -1.9 79
2020-01-21 14:00:00 4.2 7 Norte 12 Norte 0 1015.1 -1.7 80
2020-01-21 13:00:00 4.6 5 Nordeste 18 Nordeste 0 1016.1 -0.9 79
2020-01-21 12:00:00 4.5 5 Nordeste 18 Norte 0.2 1016.6 -0.8 80
2020-01-21 11:00:00 4.4 6 Nordeste 16 Norte 0 1016.8 -0.5 80
2020-01-21 10:00:00 4.1 5 Norte 14 Noroeste 0 1017 -0.3 81
2020-01-21 09:00:00 3.8 0 Calma 13 Este 0 1017.4 0.1 81
2020-01-21 08:00:00 3.3 5 Nordeste 13 Nordeste 0 1017.3 -0.6 85
2020-01-21 07:00:00 2.2 2 Norte 13 Nordeste 0 1017.3 -0.9 91
2020-01-21 06:00:00 0.1 0 Calma -- -- 0 1017.3 -1.5 90
2020-01-21 05:00:00 0 0 Calma -- -- 0 1017.9 -0.7 89
2020-01-21 04:00:00 0.3 0 Calma -- -- 0 1018.2 -1.5 86
2020-01-21 03:00:00 0.9 0 Calma 4 Noroeste 0 1018.8 -1.2 83
2020-01-21 02:00:00 1.4 0 Calma 5 Este 0 1018.6 -1.2 79
2020-01-21 01:00:00 1.6 2 Nordeste 9 Nordeste 0 1019.7 0 77
2020-01-21 00:00:00 2.6 5 Nordeste 16 Este 0 1020 0 75
2020-01-20 23:00:00 3.7 5 Nordeste 9 Nordeste 0 1019.8 -0.2 79
2020-01-20 22:00:00 3.3 5 Nordeste 8 Nordeste 0 1019.7 -0.1 80
2020-01-20 21:00:00 3.8 2 Norte 6 Nordeste 0 1020 0.4 78
2020-01-20 20:00:00 3.9 0 Calma 5 Sudeste 0 1020 0.4 76
2020-01-20 19:00:00 4 3 Noroeste 8 Nordeste 0 1019.8 0.3 72
2020-01-20 18:00:00 4 5 Este 14 Norte 0 1019.6 -0.1 71
2020-01-20 17:00:00 4.3 7 Norte 21 Norte 0 1019.6 -0.6 69
2020-01-20 16:00:00 4.4 7 Nordeste 16 Nordeste 0 1019.5 -1.2 68
2020-01-20 15:00:00 3.9 10 Norte 17 Noroeste 0 1019.7 -1.6 70
2020-01-20 14:00:00 3.6 8 Norte 14 Norte 0 1020.2 -1 71
2020-01-20 13:00:00 3.4 3 Nordeste 16 Nordeste 0 1020.7 -0.5 70
2020-01-20 12:00:00 2.8 7 Norte 30 Este 0 1021.3 0.4 70
2020-01-20 11:00:00 2.6 14 Este 28 Este 0 1021.2 0.4 70
2020-01-20 10:00:00 2.5 13 Este 36 Este 0 1021.2 1 70
2020-01-20 09:00:00 2.4 11 Nordeste 21 Nordeste 0 1020.9 0.6 70
2020-01-20 08:00:00 2.6 9 Nordeste 28 Nordeste 0 1020.8 0.5 70
2020-01-20 07:00:00 2.9 12 Nordeste 27 Este 0 1020.2 -0.6 69
2020-01-20 06:00:00 3.4 16 Este 37 Este 0 1020.3 -1 68
2020-01-20 05:00:00 3.8 18 Este 35 Este 0 1020.3 -1.2 69
2020-01-20 04:00:00 4 13 Nordeste 36 Este 0 1020.8 -1.3 66
2020-01-20 03:00:00 4.4 12 Nordeste 35 Nordeste 0 1021.3 -0.7 63
2020-01-20 02:00:00 5 11 Nordeste 42 Sudeste 0 1021.5 0 61
2020-01-20 01:00:00 5.1 15 Nordeste 40 Nordeste 0 1022.1 0.3 61
2020-01-20 00:00:00 5.3 18 Nordeste 46 Nordeste 0 1022 0.7 60
2020-01-19 23:00:00 5.6 18 Nordeste 40 Nordeste 0 1021.5 1.3 59
2020-01-19 22:00:00 5.9 17 Nordeste 44 Nordeste 0 1021.8 2.2 58
2020-01-19 21:00:00 6.3 17 Nordeste 42 Nordeste 0 1021.3 2.5 57
2020-01-19 20:00:00 6.9 13 Nordeste 40 Norte 0 1020.2 1.1 54
2020-01-19 19:00:00 7.4 15 Nordeste 43 Norte 0 1019.6 0.9 53
2020-01-19 18:00:00 7.2 19 Norte 48 Norte 0 1018.8 0.1 60
2020-01-19 17:00:00 7.1 19 Norte 48 Norte 0 1019.1 0.4 60
2020-01-19 16:00:00 7.2 14 Norte 41 Norte 0 1018.7 -0.2 62
2020-01-19 15:00:00 6.7 17 Norte 35 Norte 0 1018.7 -0.1 66
2020-01-19 14:00:00 6.6 17 Norte 34 Nordeste 0 1018.7 1 69
2020-01-19 13:00:00 6.4 15 Norte 30 Nordeste 0 1018.9 2.4 71
2020-01-19 12:00:00 6.7 12 Nordeste 27 Norte 0 1018.8 4.1 71
2020-01-19 11:00:00 6.6 13 Norte 29 Norte 0 1017.7 4 73
2020-01-19 10:00:00 6.5 12 Norte 31 Nordeste 0 1016.5 3.7 77
2020-01-19 09:00:00 6.6 8 Norte 21 Nordeste 0 1014.7 3.1 84
2020-01-19 08:00:00 6.5 5 Nordeste 13 Nordeste 0 1013.7 3.7 90
2020-01-19 07:00:00 6.5 3 Norte 19 Este 0.3 1012.8 4.8 90
2020-01-19 06:00:00 6.7 8 Norte 30 Noroeste 0.7 1011.6 3.4 90
2020-01-19 05:00:00 7 13 Norte 46 Norte 1.6 1010 2.3 94
2020-01-19 04:00:00 7.3 10 Noroeste 25 Noroeste 1.3 1008 0.7 96
2020-01-19 03:00:00 6.9 3 Este 8 Sudoeste 2 1008.2 1.1 96
2020-01-19 02:00:00 6.7 3 Sudoeste 10 Sur 2.7 1007.7 0.6 95
2020-01-19 01:00:00 6.7 0 Calma 12 Sudoeste 1.7 1007.3 0.3 95
2020-01-19 00:00:00 6.7 3 Sudoeste 11 Sudoeste 1.2 1007.1 0.3 94
2020-01-18 23:00:00 6.8 0 Calma 9 Este 2.5 1007.1 0.7 93
2020-01-18 22:00:00 6.9 2 Oeste 8 Sudoeste 2 1007 0.6 91
2020-01-18 21:00:00 7.3 2 Nordeste 14 Sudeste 1.2 1006.8 2.9 87
2020-01-18 20:00:00 8.4 2 Sudoeste 21 Sudoeste 0.6 1006.4 4.3 79
2020-01-18 19:00:00 9.1 10 Sudoeste 40 Oeste 0.5 1006.4 3.6 75
2020-01-18 18:00:00 11.2 9 Sudoeste 41 Sudoeste 0 1003.9 0.9 65
2020-01-18 17:00:00 11.8 11 Sudoeste 58 Sudeste 0 1002.1 -2.2 60
2020-01-18 16:00:00 13.1 20 Sur 46 Sudoeste 0 1002.8 -3.5 50
2020-01-18 15:00:00 13.7 12 Sudoeste 41 Sudoeste 0 1003 -5.4 48
2020-01-18 14:00:00 13.1 8 Sudoeste 39 Sudoeste 0 1004.3 -5.2 48
2020-01-18 13:00:00 12.8 0 Calma 32 Oeste 0 1006.3 -4.2 47
2020-01-18 12:00:00 12.5 11 Oeste 42 Oeste 0 1008.4 -3 48
2020-01-18 11:00:00 9.9 12 Sudoeste 27 Sudoeste 0 1009.5 -2.9 64
2020-01-18 10:00:00 7.8 11 Sudoeste 24 Sudoeste 0 1010.5 -2.5 75
2020-01-18 09:00:00 5.9 13 Sudoeste 28 Sudoeste 0 1011.4 -2.4 84
2020-01-18 08:00:00 5.2 6 Sudoeste 16 Oeste 0 1012.4 -2.2 90
2020-01-18 07:00:00 5.5 4 Oeste 18 Sudoeste 0 1013 -2.5 92
2020-01-18 06:00:00 4.3 0 Calma 7 Noroeste 0 1013.8 -2.4 94
2020-01-18 05:00:00 4.1 2 Este 14 Sudoeste 0 1014.6 -2.3 93
2020-01-18 04:00:00 4.4 2 Este 11 Sudoeste 0 1015.5 -1.8 93
2020-01-18 03:00:00 4.3 0 Calma 11 Sudoeste 0 1016.2 -1.5 93
2020-01-18 02:00:00 4.7 4 Sudoeste 13 Sudoeste 0 1016.9 -1.6 92
2020-01-18 01:00:00 5.1 3 Sudoeste 11 Sudoeste 0 1017.3 -1.2 91
2020-01-18 00:00:00 4.8 0 Calma 5 Oeste 0 1017.7 -1.1 90
2020-01-17 23:00:00 5.5 0 Calma 10 Sudoeste 0 1018.5 0 89
2020-01-17 22:00:00 5.9 3 Sudoeste 8 Sudoeste 0 1018.5 0.3 87
2020-01-17 21:00:00 6.4 3 Sudoeste 8 Sudoeste 0 1018.8 1.3 85
2020-01-17 20:00:00 6.6 0 Calma 7 Sudoeste 0 1018.5 1.7 81
2020-01-17 19:00:00 8.3 2 Sudoeste 20 Oeste 0 1018.2 2.1 72
2020-01-17 18:00:00 9.2 10 Sudoeste 22 Sudoeste 0 1017.5 1.8 70
2020-01-17 17:00:00 9.9 10 Oeste 27 Oeste 0 1016.8 1.2 69
2020-01-17 16:00:00 10.2 6 Oeste 19 Oeste 0 1016.1 0.6 70
2020-01-17 15:00:00 9.9 10 Sudoeste 22 Sur 0 1015.7 0.2 72
2020-01-17 14:00:00 9.9 7 Sudoeste 26 Sudoeste 0.1 1015.6 1.1 78
2020-01-17 13:00:00 10.1 4 Sudoeste 20 Sudoeste 0 1015.5 2.1 78
2020-01-17 12:00:00 9.2 3 Oeste 17 Sur 0 1015.5 2.7 83
2020-01-17 11:00:00 8.6 5 Sudoeste 19 Sudoeste 1.9 1014.5 2.9 86
2020-01-17 10:00:00 8.8 5 Sudoeste 21 Oeste 0.1 1013.4 4 85
2020-01-17 09:00:00 8.5 4 Sudoeste 26 Oeste 0.9 1012.8 4.4 85
2020-01-17 08:00:00 8.8 15 Oeste 32 Oeste 1.7 1011.6 3.3 84
2020-01-17 07:00:00 10.4 5 Sudoeste 29 Sudoeste 0.7 1009.4 1.2 73
2020-01-17 06:00:00 12.8 11 Sur 35 Sudeste 0 1008.4 1 54
2020-01-17 05:00:00 12.8 6 Sudeste 29 Sur 0 1008.3 1.4 54
2020-01-17 04:00:00 13.3 12 Sudeste 33 Sudoeste 0 1008.2 2.5 51
2020-01-17 03:00:00 14.2 6 Sur 45 Sudoeste 0 1007.4 1.5 49
2020-01-17 02:00:00 14.4 19 Sur 73 Sudoeste 0 1006.9 2.2 49
2020-01-17 01:00:00 14.5 27 Sur 71 Sudoeste 0 1005.7 0.4 48
2020-01-17 00:00:00 15 22 Sudoeste 54 Sudoeste 0 1005.9 1.5 48
2020-01-16 23:00:00 15.3 6 Sur 32 Sudoeste 0 1004.7 0 47
2020-01-16 22:00:00 15.4 11 Sudoeste 39 Sudoeste 0 1005.3 1.5 50
2020-01-16 21:00:00 15.6 9 Sudoeste 42 Sudeste 0 1004.4 0 51
2020-01-16 20:00:00 15.1 7 Oeste 30 Sudoeste 0 1004.7 0.2 52
2020-01-16 19:00:00 15.5 3 Noroeste 26 Sudoeste 0 1003.8 -0.1 52
2020-01-16 18:00:00 15.8 0 Calma 24 Sudoeste 0 1004.4 -0.2 51
2020-01-16 17:00:00 16.2 9 Oeste 37 Sudoeste 0 1004.5 -0.6 50
2020-01-16 16:00:00 16.9 9 Oeste 40 Sudoeste 0 1003.9 -2.4 49
2020-01-16 15:00:00 16.8 10 Sudoeste 40 Sudoeste 0 1004.6 -2.5 48
2020-01-16 14:00:00 16.9 13 Sudoeste 50 Sudoeste 0 1005.1 -1.8 49
2020-01-16 13:00:00 16.7 10 Sudoeste 31 Sur 0 1006.3 -0.3 50
2020-01-16 12:00:00 15.3 6 Sur 39 Oeste 0 1007.1 0.1 52
2020-01-16 11:00:00 15 18 Sudoeste 46 Oeste 0 1006.9 0 53
2020-01-16 10:00:00 14.4 15 Sudoeste 39 Sudoeste 0 1006.6 -0.1 54
2020-01-16 09:00:00 13.8 9 Sur 39 Sur 0 1007 0.2 54
2020-01-16 08:00:00 13.7 2 Sudeste 23 Sudeste 0 1006.9 0 55
2020-01-16 07:00:00 14.7 11 Sur 40 Sur 0 1006.7 -0.3 54
2020-01-16 06:00:00 14.7 8 Sudoeste 35 Oeste 0 1006.8 -0.9 54
2020-01-16 05:00:00 14.7 8 Sudoeste 54 Sur 0 1006.9 -0.5 54
2020-01-16 04:00:00 14.8 13 Sur 52 Sudoeste 0 1007 -1.1 54
2020-01-16 03:00:00 14.2 12 Sur 62 Sur 0 1007.7 -0.2 56
2020-01-16 02:00:00 13.9 10 Sur 46 Sudeste 0 1007.4 -1.1 58
2020-01-16 01:00:00 13.7 0 Calma 49 Sur 0 1008.1 -0.9 58
2020-01-16 00:00:00 13.6 16 Sur 51 Sur 0 1007.9 -1.4 60
2020-01-15 23:00:00 13.3 11 Sur 37 Sur 0 1008.5 -1.1 63
2020-01-15 22:00:00 7.5 2 Oeste 21 Noroeste 0 1009 0.3 89
2020-01-15 21:00:00 8.1 0 Calma 8 Sudeste 0 1009.3 1.5 87
2020-01-15 20:00:00 9.3 0 Calma 12 Nordeste 0 1009.6 2.7 84
2020-01-15 19:00:00 11 0 Calma 19 Noroeste 0 1008.7 3 81
2020-01-15 18:00:00 12.2 12 Norte 24 Norte 0 1007.8 2.4 72
2020-01-15 17:00:00 15.2 4 Sur 31 Este 0 1006.9 2.2 50
2020-01-15 16:00:00 15.2 11 Sur 43 Sudeste 0 1005.7 0.5 49
2020-01-15 15:00:00 15.2 14 Sur 42 Sudoeste 0 1005.4 0.2 48
2020-01-15 14:00:00 15.1 15 Sur 44 Sudoeste 0 1004.7 0.6 48
2020-01-15 13:00:00 14.4 12 Sur 39 Sudoeste 0 1005.2 2.9 48
2020-01-15 12:00:00 14 4 Sudeste 46 Sur 0 1005.2 3.2 49
2020-01-15 11:00:00 13.7 11 Sudeste 51 Sur 0 1004.1 2.8 48
2020-01-15 10:00:00 13.7 14 Sudoeste 55 Sur 0 1002.3 0.7 47
2020-01-15 09:00:00 13.6 4 Sudoeste 50 Sudoeste 0 1002 1 47
2020-01-15 08:00:00 13.2 15 Sur 55 Sudoeste 0 1001.3 0.9 48
2020-01-15 07:00:00 12.7 9 Sudoeste 38 Sudoeste 0 1001.6 1.2 51
2020-01-15 06:00:00 12.9 5 Noroeste 35 Este 0 1001 1.7 52
2020-01-15 05:00:00 12.9 14 Nordeste 66 Sur 0 1000.4 -0.5 52
2020-01-15 04:00:00 12.7 9 Sudoeste 69 Sur 0 1000.4 -1.1 52
2020-01-15 03:00:00 12.6 9 Oeste 57 Sudoeste 0 999.3 -2.1 51
2020-01-15 02:00:00 12.4 10 Oeste 50 Sudoeste 0 1000.9 0.1 51
2020-01-15 01:00:00 12.1 10 Sudoeste 40 Sudoeste 0 1001.5 0.6 50
2020-01-15 00:00:00 12.3 9 Sur 50 Sudoeste 0 1001.4 0.6 49
2020-01-14 23:00:00 12.8 15 Sur 54 Sur 0 1000.8 0.9 48
2020-01-14 22:00:00 12.8 8 Sudoeste 60 Sudoeste 0 1000.9 0 47
2020-01-14 21:00:00 13.3 8 Sudoeste 58 Sudoeste 0 1000.8 0.7 46
2020-01-14 20:00:00 13.5 9 Sudoeste 48 Sudoeste 0 999.9 -0.3 46
2020-01-14 19:00:00 13.4 10 Sudoeste 67 Oeste 0 1000.9 0.6 46
2020-01-14 18:00:00 13.7 13 Sudoeste 50 Sudoeste 0 1000.1 -0.5 47
2020-01-14 17:00:00 13.7 12 Sudoeste 57 Sudoeste 0 1000.2 -0.8 47
2020-01-14 16:00:00 14.1 15 Sur 63 Sur 0 1000.3 -1.4 46
2020-01-14 15:00:00 13.9 17 Sur 67 Sur 0 1000.6 -1.2 47
2020-01-14 14:00:00 13.7 23 Sur 72 Sur 0 1001 -1 48
2020-01-14 13:00:00 13.3 22 Sur 64 Sur 0 1001.7 -0.5 52
2020-01-14 12:00:00 11.8 30 Sur 68 Sur 0 1001.8 0.5 55
2020-01-14 11:00:00 12.1 26 Sur 64 Sur 0 1002 0.6 55
2020-01-14 10:00:00 10.6 27 Sur 67 Sur 0 1002.2 1.1 57
2020-01-14 09:00:00 10.4 31 Sur 62 Sur 0 1001.3 0.4 57
2020-01-14 08:00:00 10.2 28 Sur 66 Sur 0 1001.4 0 57
2020-01-14 07:00:00 10 29 Sur 61 Sur 0 1001.1 -0.7 56
2020-01-14 06:00:00 10.2 29 Sur 66 Sur 0 1000.9 -0.9 55
2020-01-14 05:00:00 9.8 28 Sur 63 Sur 0 1001.4 -0.2 53
2020-01-14 04:00:00 10.2 30 Sur 69 Sur 0 1001.8 -0.4 51
2020-01-14 03:00:00 10.3 27 Sur 63 Sudeste 0 1001.8 -1.3 48
2020-01-14 02:00:00 10.9 18 Sur 60 Sur 0 1001.6 -2 46
2020-01-14 01:00:00 11.2 29 Sur 56 Sur 0 1002.2 -1 45
2020-01-14 00:00:00 10.7 12 Sur 56 Sudeste 0 1003.1 0.6 43
2020-01-13 23:00:00 10.3 12 Sur 53 Sur 0 1003.6 0.6 43
2020-01-13 22:00:00 10.5 17 Sur 53 Sur 0 1003.2 0.7 41
2020-01-13 21:00:00 11.4 29 Sur 62 Sur 0 1002.5 -0.3 39
2020-01-13 20:00:00 11.5 16 Sur 49 Sudoeste 0 1003 0 39
2020-01-13 19:00:00 12 12 Sur 64 Sur 0 1002.5 -0.8 38
2020-01-13 18:00:00 12.4 16 Sur 61 Sur 0 1002.8 -1.1 37
2020-01-13 17:00:00 12.8 13 Sur 54 Sudoeste 0 1003 -2.1 36
2020-01-13 16:00:00 13 15 Sur 42 Sur 0 1003.3 -3.1 36
2020-01-13 15:00:00 13.1 17 Sur 44 Sur 0 1003.9 -3.8 38
2020-01-13 14:00:00 12 19 Sur 50 Sur 0 1005.1 -2.8 40
2020-01-13 13:00:00 11.9 8 Sur 36 Sur 0 1006.4 -2.1 45
2020-01-13 12:00:00 10.8 0 Calma 26 Sudoeste 0 1007.7 -0.7 61
2020-01-13 11:00:00 7.2 15 Sudoeste 28 Sudoeste 0 1007.9 -1.3 78
2020-01-13 10:00:00 3.1 2 Sur 21 Oeste 0 1008.5 -0.9 96
2020-01-13 09:00:00 2.3 13 Sudoeste 29 Oeste 0 1008.4 -1.8 96
2020-01-13 08:00:00 1.4 2 Sudoeste 20 Sudoeste 0 1009.2 -1.8 96
2020-01-13 07:00:00 1.6 7 Sudoeste 20 Sudoeste 0 1009.4 -2.6 96
2020-01-13 06:00:00 1.1 3 Sur 12 Sur 0 1010.2 -2.4 96
2020-01-13 05:00:00 1 0 Calma 10 Sudoeste 0 1011 -1.9 95
2020-01-13 04:00:00 1.9 2 Sur 14 Sur 0 1012 -2 95
2020-01-13 03:00:00 2.4 7 Sudoeste 14 Sudoeste 0 1012.6 -2 95
2020-01-13 02:00:00 2.2 4 Sur 12 Sur 0 1012.9 -1.7 94
2020-01-13 01:00:00 2.5 0 Calma 13 Sudoeste 0 1014 -0.9 94
2020-01-13 00:00:00 2.7 3 Sur 10 Sudoeste 0 1014.6 -0.8 93
2020-01-12 23:00:00 3 4 Sur 12 Sudoeste 0 1014.6 -1.2 91
2020-01-12 22:00:00 3.5 4 Sudoeste 12 Oeste 0 1014.9 -0.7 90
2020-01-12 21:00:00 4 0 Calma -- -- 0 1015.4 0 88
2020-01-12 20:00:00 4.7 0 Calma -- -- 0 1015.8 0.5 85
2020-01-12 19:00:00 5.9 0 Calma -- -- 0 1015.6 0.1 82
2020-01-12 18:00:00 7.3 0 Calma -- -- 0 1015.4 -0.3 74
2020-01-12 17:00:00 8.4 0 Calma -- -- 0 1015.3 -0.9 68
2020-01-12 16:00:00 9.7 0 Calma -- -- 0 1015.5 -2 66
2020-01-12 15:00:00 9.8 0 Calma -- -- 0 1015.7 -3 71
2020-01-12 14:00:00 8.7 0 Calma -- -- 0 1016.2 -2.8 76
2020-01-12 13:00:00 6.4 0 Calma -- -- 0 1017.5 -1 93
2020-01-12 12:00:00 4 0 Calma -- -- 0 1018.7 0.7 98
2020-01-12 11:00:00 2.1 0 Calma -- -- 0 1019 1.1 98
2020-01-12 10:00:00 0.2 0 Calma -- -- 0 1018.5 0.8 98
2020-01-12 09:00:00 -0.1 0 Calma -- -- 0 1018 0.8 98
2020-01-12 08:00:00 0 0 Calma 7 Sudeste 0.1 1017.9 0.8 97
2020-01-12 07:00:00 0.1 0 Calma -- -- 0 1017.7 0.3 97
2020-01-12 06:00:00 0.6 0 Calma 10 Sudoeste 0 1017.2 0.2 97
2020-01-12 05:00:00 0.5 0 Calma 10 Sur 0 1017.1 0.2 97
2020-01-12 04:00:00 1.2 0 Calma 9 Sudoeste 0 1017.4 0.5 96
2020-01-12 03:00:00 1.3 2 Sur 11 Sudoeste 0 1017 -0.1 96
2020-01-12 02:00:00 2.1 4 Sur 16 Sur 0 1016.9 0.2 95
2020-01-12 01:00:00 2.5 6 Sudoeste 19 Sudoeste 0 1016.9 0.3 95
2020-01-12 00:00:00 2.8 6 Sur 15 Sur 0 1017.1 0.2 94
2020-01-11 23:00:00 2.7 3 Sur 10 Sudoeste 0 1016.7 0 93
2020-01-11 22:00:00 3.2 0 Calma -- -- 0 1016.6 0 92
2020-01-11 21:00:00 4 3 Sudoeste 8 Sudoeste 0 1016.9 0.8 90
2020-01-11 20:00:00 4.6 0 Calma 8 Sudoeste 0 1016.7 0.8 88
2020-01-11 19:00:00 5.6 0 Calma -- -- 0 1016.6 0.6 82
2020-01-11 18:00:00 7.2 0 Calma -- -- 0 1016.1 0 76
2020-01-11 17:00:00 8.5 0 Calma 8 Sudeste 0 1015.9 -1.2 70
2020-01-11 16:00:00 9.5 4 Sudeste 8 Sudeste 0 1016 -2.3 67
2020-01-11 15:00:00 10.1 5 Sudeste 6 Sudeste 0 1016.1 -3.3 69
2020-01-11 14:00:00 9.7 0 Calma 10 Sudoeste 0 1017.1 -2.8 75
2020-01-11 13:00:00 8.3 0 Calma 9 Sudoeste 0 1018.3 -1.3 84
2020-01-11 12:00:00 7.1 4 Sudoeste 8 Sudoeste 0 1019.4 -0.2 94
2020-01-11 11:00:00 5.5 0 Calma -- -- 0 1019.9 0.2 97
2020-01-11 10:00:00 4.8 0 Calma -- -- 0 1019.6 0 97
2020-01-11 09:00:00 4.4 0 Calma 8 Sudeste 0 1019.6 0 97
2020-01-11 08:00:00 4.4 0 Calma -- -- 0 1019.7 0 97
2020-01-11 07:00:00 4.6 0 Calma -- -- 0 1019.6 -0.5 97
2020-01-11 06:00:00 4.4 0 Calma -- -- 0 1019.6 -0.4 97
2020-01-11 05:00:00 4.7 0 Calma 6 Sudeste 0 1019.7 -0.2 97
2020-01-11 04:00:00 5 0 Calma 10 Este 0 1020.1 -0.1 96
2020-01-11 03:00:00 5.2 0 Calma 10 Sudoeste 0 1020 -0.2 96
2020-01-11 02:00:00 5.5 0 Calma -- -- 0 1019.9 0.2 96
2020-01-11 01:00:00 5.3 0 Calma 5 Este 0 1020.2 0.2 96
2020-01-11 00:00:00 5.5 0 Calma 13 Sudoeste 0 1020.2 0.5 95
2020-01-10 23:00:00 6.1 5 Sudoeste 13 Sudoeste 0 1019.7 0.3 94
2020-01-10 22:00:00 7 5 Sudoeste 10 Sudoeste 0.2 1020 1.5 94
2020-01-10 21:00:00 7.4 3 Sudoeste 9 Sudoeste 0.3 1019.7 1.3 93
2020-01-10 20:00:00 7.4 4 Este 8 Sudoeste 0.1 1019.4 1.9 91
2020-01-10 19:00:00 7.8 2 Sudoeste 6 Sudoeste 0.5 1018.5 1.4 87
2020-01-10 18:00:00 8.5 0 Calma 11 Nordeste 0.4 1018.4 1.7 81
2020-01-10 17:00:00 9.5 2 Sudoeste 12 Norte 0.1 1017.5 0.9 79
2020-01-10 16:00:00 9.7 8 Norte 19 Nordeste 0.6 1017.1 0.5 75
2020-01-10 15:00:00 10.2 4 Nordeste 18 Este 0 1016.7 0 79
2020-01-10 14:00:00 9.2 5 Norte 22 Norte 1.8 1016.6 0 81
2020-01-10 13:00:00 10.9 4 Sudoeste 11 Sur 0 1016.6 0.8 80
2020-01-10 12:00:00 9.3 0 Calma 9 Sudeste 0.6 1016.7 1.3 86
2020-01-10 11:00:00 9.4 3 Noroeste 25 Sudoeste 0.1 1016.6 1.4 79
2020-01-10 10:00:00 8.7 3 Sudoeste 17 Oeste 0 1015.8 1.1 80
2020-01-10 09:00:00 8.4 5 Sudoeste 24 Sudoeste 0 1015.4 1.6 80
2020-01-10 08:00:00 8.3 5 Sudoeste 29 Oeste 0 1015.2 1.8 80
2020-01-10 07:00:00 7.8 2 Sudoeste 19 Sudoeste 0.2 1014.7 1.4 81
2020-01-10 06:00:00 8.2 5 Oeste 16 Oeste 0.1 1013.8 0.6 79
2020-01-10 05:00:00 8.5 2 Sudoeste 21 Noroeste 0.3 1013.4 0.7 75
2020-01-10 04:00:00 8.9 5 Sudoeste 24 Sudoeste 0 1013.3 1.2 71
2020-01-10 03:00:00 9.1 4 Sudoeste 32 Oeste 0.2 1013.2 1 72
2020-01-10 02:00:00 9.9 3 Sudoeste 19 Oeste 0 1012.7 0.8 66
2020-01-10 01:00:00 10.5 6 Oeste 18 Noroeste 0 1012.1 1 66
2020-01-10 00:00:00 10.5 3 Sudoeste 23 Oeste 0 1012.2 1.8 68
2020-01-09 23:00:00 10 5 Oeste 16 Sudoeste 0 1011.9 1.4 75
2020-01-09 22:00:00 9.9 6 Sudoeste 14 Sudoeste 0 1011.1 0.9 76
2020-01-09 21:00:00 10.1 5 Sudoeste 26 Sudoeste 0 1010.4 0.2 72
2020-01-09 20:00:00 11.3 11 Sudoeste 33 Oeste 0 1010.5 2.6 66
2020-01-09 19:00:00 11.3 7 Oeste 28 Sudoeste 0 1010.2 5.6 70
2020-01-09 18:00:00 11 12 Oeste 66 Noroeste 0 1010.2 5.7 69
2020-01-09 17:00:00 15.6 10 Sur 48 Sudoeste 0 1007.9 2.2 51
2020-01-09 16:00:00 15.7 11 Sur 46 Sur 0 1004.6 -2.5 51
2020-01-09 15:00:00 15.2 24 Sur 57 Sur 0 1004.5 -4.2 51
2020-01-09 14:00:00 14.9 10 Sur 49 Sur 0 1005.7 -4 49
2020-01-09 13:00:00 14.1 10 Sudoeste 39 Sur 0 1007.1 -2.8 53
2020-01-09 12:00:00 13.6 0 Calma 23 Sudoeste 0 1008.7 -1.1 57
2020-01-09 11:00:00 11.7 10 Sur 29 Sudoeste 0 1009.7 -0.2 62
2020-01-09 10:00:00 10 10 Sudoeste 25 Sudoeste 0 1009.9 -0.5 67
2020-01-09 09:00:00 8.9 10 Sudoeste 27 Sudoeste 0 1009.8 -0.8 68
2020-01-09 08:00:00 9.1 11 Oeste 30 Oeste 0 1009.9 -0.7 66
2020-01-09 07:00:00 9.3 8 Sudoeste 26 Oeste 0 1010.4 -0.3 65
2020-01-09 06:00:00 9.5 10 Sudoeste 26 Sudoeste 0 1010.6 -0.8 63
2020-01-09 05:00:00 10 12 Sudoeste 28 Sudoeste 0 1010.6 -1.4 63
2020-01-09 04:00:00 9.9 16 Sudoeste 34 Sudoeste 0 1010.7 -1.6 64
2020-01-09 03:00:00 9.6 8 Sudoeste 28 Sudoeste 0 1011.4 -1.4 69
2020-01-09 02:00:00 7.1 12 Sudoeste 25 Sudoeste 0 1012 -0.9 84
2020-01-09 01:00:00 6.6 7 Sudoeste 23 Sudoeste 0 1012.3 -0.9 90
2020-01-09 00:00:00 6.9 8 Sudoeste 22 Sudoeste 0 1012.8 -0.9 91
2020-01-08 23:00:00 7.1 6 Sudoeste 19 Sudoeste 0 1012.9 -1 91
2020-01-08 22:00:00 6.2 3 Sudoeste 10 Sudoeste 0 1013.2 -1 90
2020-01-08 21:00:00 6.5 2 Sudoeste 7 Sudoeste 0 1013.7 -0.2 87
2020-01-08 20:00:00 7.4 0 Calma 9 Sudoeste 0 1013.9 0.1 83
2020-01-08 19:00:00 8.7 0 Calma 7 Sudoeste 0 1014.2 0.5 75
2020-01-08 18:00:00 10.4 0 Calma -- -- 0 1013.9 -0.3 65
2020-01-08 17:00:00 12 0 Calma -- -- 0 1013.8 -1.2 63
2020-01-08 16:00:00 13 0 Calma -- -- 0 1013.7 -2.3 62
2020-01-08 15:00:00 13.2 0 Calma -- -- 0 1014.2 -2.8 69
2020-01-08 14:00:00 11.5 0 Calma -- -- 0 1015 -2.7 96
2020-01-08 13:00:00 8.7 0 Calma -- -- 0 1016 -1.5 97
2020-01-08 12:00:00 6.2 0 Calma -- -- 0 1017 -0.3 97
2020-01-08 11:00:00 5.2 0 Calma 9 Sudoeste 0 1017.7 0.9 97
2020-01-08 10:00:00 4.7 0 Calma -- -- 0 1017.5 0.9 97
2020-01-08 09:00:00 4.5 0 Calma 5 Sudoeste 0 1017.3 1 97
2020-01-08 08:00:00 4.7 0 Calma -- -- 0 1016.8 0.5 97
2020-01-08 07:00:00 4.6 0 Calma -- -- 0 1016.6 -0.1 97
2020-01-08 06:00:00 4.5 0 Calma -- -- 0 1016.3 -0.4 96
2020-01-08 05:00:00 4.4 0 Calma -- -- 0 1016.3 -0.4 96
2020-01-08 04:00:00 4.8 0 Calma -- -- 0 1016.7 -0.3 96
2020-01-08 03:00:00 4.8 0 Calma -- -- 0 1016.7 -0.7 96
2020-01-08 02:00:00 5.1 0 Calma -- -- 0 1016.7 -0.9 96
2020-01-08 01:00:00 5.2 0 Calma 10 Sur 0 1017 -0.6 95
2020-01-08 00:00:00 5.5 0 Calma 9 Sur 0 1017.4 0.2 94
2020-01-07 23:00:00 5.8 2 Sur 11 Sudoeste 0 1017.6 0.5 93
2020-01-07 22:00:00 6 3 Sudoeste 11 Sudoeste 0 1017.6 0.7 93
2020-01-07 21:00:00 6.4 0 Calma 9 Sudoeste 0 1017.2 0.5 90
2020-01-07 20:00:00 7.2 0 Calma -- -- 0 1017.1 1 87
2020-01-07 19:00:00 8.3 0 Calma 6 Sudeste 0 1016.9 0.9 81
2020-01-07 18:00:00 9.8 0 Calma 6 Sudeste 0 1016.7 0.3 77
2020-01-07 17:00:00 11.4 0 Calma 7 Norte 0 1016.1 -0.7 72
2020-01-07 16:00:00 12.2 0 Calma -- -- 0 1016 -1.8 69
2020-01-07 15:00:00 12.7 0 Calma 6 Sur 0 1016.4 -2.3 70
2020-01-07 14:00:00 11.2 3 Sudeste 7 Sudoeste 0 1016.8 -2.8 74
2020-01-07 13:00:00 9.5 0 Calma 13 Sudoeste 0 1017.8 -1.2 83
2020-01-07 12:00:00 6.1 4 Sur 14 Sudoeste 0 1018.7 0.3 95
2020-01-07 11:00:00 4.1 4 Sudoeste 10 Sudoeste 0 1019.6 1.5 96
2020-01-07 10:00:00 3.3 0 Calma 10 Sudoeste 0 1019 0.9 97
2020-01-07 09:00:00 2.2 0 Calma 10 Sudoeste 0 1018.4 0.1 97
2020-01-07 08:00:00 2.4 5 Sur 11 Sudoeste 0 1018.1 -0.3 96
2020-01-07 07:00:00 2.5 0 Calma 12 Sur 0 1018.1 -0.4 96
2020-01-07 06:00:00 3.1 0 Calma 15 Sudoeste 0 1018.3 0.3 96
2020-01-07 05:00:00 3.6 5 Sudoeste 14 Sudoeste 0 1018.4 -0.3 96
2020-01-07 04:00:00 3.5 0 Calma 6 Sudeste 0 1018.5 -0.6 95
2020-01-07 03:00:00 3.8 0 Calma 12 Sudoeste 0 1018 -1 95
2020-01-07 02:00:00 4.4 3 Sur 9 Sudoeste 0 1018.7 0.2 95
2020-01-07 01:00:00 3.9 2 Sur 7 Sur 0 1019.1 0.9 94
2020-01-07 00:00:00 3.4 0 Calma 5 Sudoeste 0 1019 0.6 94
2020-01-06 23:00:00 4 0 Calma 10 Sudoeste 0 1018.5 0.4 93
2020-01-06 22:00:00 4.8 4 Sudoeste 18 Sur 0 1018.2 1.4 92
2020-01-06 21:00:00 5.5 7 Sudoeste 14 Sudoeste 0 1018.4 2.5 90
2020-01-06 20:00:00 5.8 2 Sudoeste 9 Este 0 1018.1 2.9 87
2020-01-06 19:00:00 6.6 4 Sudoeste 14 Oeste 0 1016.8 3.1 84
2020-01-06 18:00:00 7.9 0 Calma 9 Sudeste 0 1015.9 2.8 75
2020-01-06 17:00:00 9.9 0 Calma 11 Sudeste 0 1015.2 2 68
2020-01-06 16:00:00 11.5 0 Calma 20 Norte 0 1013.7 -0.2 60
2020-01-06 15:00:00 12 0 Calma -- -- 0 1013.1 -1.6 57
2020-01-06 14:00:00 11.1 0 Calma 6 Sudeste 0 1013.2 -2.2 61
2020-01-06 13:00:00 9.6 0 Calma 7 Sudeste 0 1013.9 -0.9 69
2020-01-06 12:00:00 6.9 0 Calma 13 Sudoeste 0 1014.7 0.4 81
2020-01-06 11:00:00 4.3 7 Sudoeste 13 Sudoeste 0 1015.4 1.9 91
2020-01-06 10:00:00 2.2 3 Sur 18 Sudoeste 0 1014.8 2.3 96